createdAt,value
2022-08-07T00:00:03.119Z,1004.66
2022-08-07T00:01:01.386Z,1004.73
2022-08-07T00:02:40.497Z,1004.74
2022-08-07T00:03:02.773Z,1004.74
2022-08-07T00:04:01.358Z,1004.66
2022-08-07T00:05:01.390Z,1004.74
2022-08-07T00:06:01.342Z,1004.67
2022-08-07T00:07:05.295Z,1004.73
2022-08-07T00:08:02.370Z,1004.68
2022-08-07T00:09:17.205Z,1004.75
2022-08-07T00:10:25.578Z,1004.73
2022-08-07T00:11:03.320Z,1004.70
2022-08-07T00:12:01.297Z,1004.71
2022-08-07T00:13:02.487Z,1004.67
2022-08-07T00:14:03.290Z,1004.76
2022-08-07T00:15:01.304Z,1004.70
2022-08-07T00:16:01.269Z,1004.70
2022-08-07T00:17:01.671Z,1004.72
2022-08-07T00:18:01.249Z,1004.68
2022-08-07T00:19:01.246Z,1004.70
2022-08-07T00:20:03.480Z,1004.75
2022-08-07T00:21:03.438Z,1004.61
2022-08-07T00:22:03.353Z,1004.68
2022-08-07T00:23:01.223Z,1004.64
2022-08-07T00:24:01.205Z,1004.62
2022-08-07T00:25:01.237Z,1004.61
2022-08-07T00:26:13.330Z,1004.57
2022-08-07T00:27:07.378Z,1004.61
2022-08-07T00:28:02.231Z,1004.67
2022-08-07T00:29:01.175Z,1004.62
2022-08-07T00:30:01.197Z,1004.67
2022-08-07T00:31:01.150Z,1004.67
2022-08-07T00:32:02.154Z,1004.65
2022-08-07T00:33:01.164Z,1004.63
2022-08-07T00:34:01.132Z,1004.62
2022-08-07T00:35:01.130Z,1004.57
2022-08-07T00:36:01.145Z,1004.51
2022-08-07T00:37:01.112Z,1004.58
2022-08-07T00:38:01.118Z,1004.55
2022-08-07T00:39:01.137Z,1004.51
2022-08-07T00:40:01.163Z,1004.51
2022-08-07T00:41:01.101Z,1004.57
2022-08-07T00:42:01.813Z,1004.53
2022-08-07T00:43:01.065Z,1004.52
2022-08-07T00:44:03.002Z,1004.52
2022-08-07T00:45:02.051Z,1004.56
2022-08-07T00:46:02.249Z,1004.59
2022-08-07T00:47:01.042Z,1004.49
2022-08-07T00:48:08.218Z,1004.55
2022-08-07T00:49:02.343Z,1004.56
2022-08-07T00:50:21.367Z,1004.53
2022-08-07T00:51:02.028Z,1004.57
2022-08-07T00:52:00.993Z,1004.52
2022-08-07T00:53:00.978Z,1004.52
2022-08-07T00:54:01.979Z,1004.52
2022-08-07T00:55:05.006Z,1004.59
2022-08-07T00:56:03.696Z,1004.51
2022-08-07T00:57:00.969Z,1004.52
2022-08-07T00:58:00.957Z,1004.50
2022-08-07T00:59:00.946Z,1004.48
2022-08-07T01:00:00.936Z,1004.54
2022-08-07T01:01:01.023Z,1004.48
2022-08-07T01:02:01.005Z,1004.54
2022-08-07T01:03:00.918Z,1004.48
2022-08-07T01:04:00.906Z,1004.43
2022-08-07T01:05:00.898Z,1004.47
2022-08-07T01:06:00.914Z,1004.40
2022-08-07T01:07:00.878Z,1004.40
2022-08-07T01:08:00.873Z,1004.37
2022-08-07T01:09:01.526Z,1004.46
2022-08-07T01:10:06.897Z,1004.36
2022-08-07T01:12:04.580Z,1004.39
2022-08-07T01:12:09.745Z,1004.44
2022-08-07T01:13:01.831Z,1004.37
2022-08-07T01:14:00.826Z,1004.43
2022-08-07T01:15:03.711Z,1004.36
2022-08-07T01:16:05.829Z,1004.34
2022-08-07T01:17:04.192Z,1004.38
2022-08-07T01:18:01.801Z,1004.25
2022-08-07T01:19:00.782Z,1004.38
2022-08-07T01:20:00.777Z,1004.35
2022-08-07T01:21:00.806Z,1004.33
2022-08-07T01:22:00.765Z,1004.31
2022-08-07T01:23:12.395Z,1004.30
2022-08-07T01:24:01.750Z,1004.39
2022-08-07T01:25:00.742Z,1004.31
2022-08-07T01:26:00.768Z,1004.29
2022-08-07T01:27:00.721Z,1004.35
2022-08-07T01:28:00.718Z,1004.37
2022-08-07T01:29:33.906Z,1004.28
2022-08-07T01:30:00.891Z,1004.31
2022-08-07T01:31:00.699Z,1004.27
2022-08-07T01:32:00.715Z,1004.33
2022-08-07T01:33:00.687Z,1004.24
2022-08-07T01:34:00.676Z,1004.32
2022-08-07T01:35:00.667Z,1004.27
2022-08-07T01:36:06.311Z,1004.23
2022-08-07T01:37:01.677Z,1004.29
2022-08-07T01:38:00.662Z,1004.29
2022-08-07T01:39:00.698Z,1004.26
2022-08-07T01:40:00.815Z,1004.28
2022-08-07T01:41:00.621Z,1004.24
2022-08-07T01:42:36.766Z,1004.22
2022-08-07T01:43:01.602Z,1004.15
2022-08-07T01:44:00.595Z,1004.17
2022-08-07T01:45:00.587Z,1004.21
2022-08-07T01:46:00.599Z,1004.19
2022-08-07T01:47:00.983Z,1004.25
2022-08-07T01:48:30.494Z,1004.26
2022-08-07T01:49:02.358Z,1004.25
2022-08-07T01:50:00.706Z,1004.20
2022-08-07T01:51:24.283Z,1004.19
2022-08-07T01:52:04.745Z,1004.26
2022-08-07T01:53:00.541Z,1004.18
2022-08-07T01:54:09.412Z,1004.21
2022-08-07T01:55:02.021Z,1004.21
2022-08-07T01:56:00.500Z,1004.26
2022-08-07T01:57:01.591Z,1004.24
2022-08-07T01:58:01.350Z,1004.24
2022-08-07T01:59:01.501Z,1004.24
2022-08-07T02:00:00.477Z,1004.21
2022-08-07T02:01:10.130Z,1004.21
2022-08-07T02:02:04.255Z,1004.22
2022-08-07T02:03:19.274Z,1004.19
2022-08-07T02:04:01.538Z,1004.23
2022-08-07T02:05:00.448Z,1004.21
2022-08-07T02:06:01.027Z,1004.28
2022-08-07T02:07:00.451Z,1004.18
2022-08-07T02:08:00.414Z,1004.20
2022-08-07T02:09:00.410Z,1004.27
2022-08-07T02:10:00.404Z,1004.27
2022-08-07T02:11:00.383Z,1004.24
2022-08-07T02:12:04.948Z,1004.24
2022-08-07T02:13:00.382Z,1004.22
2022-08-07T02:14:02.332Z,1004.25
2022-08-07T02:15:00.613Z,1004.25
2022-08-07T02:16:00.356Z,1004.22
2022-08-07T02:17:00.372Z,1004.24
2022-08-07T02:18:00.339Z,1004.18
2022-08-07T02:19:00.337Z,1004.19
2022-08-07T02:20:04.348Z,1004.24
2022-08-07T02:21:01.314Z,1004.24
2022-08-07T02:22:01.331Z,1004.24
2022-08-07T02:23:00.301Z,1004.22
2022-08-07T02:24:00.295Z,1004.20
2022-08-07T02:25:00.284Z,1004.26
2022-08-07T02:26:31.791Z,1004.27
2022-08-07T02:27:02.425Z,1004.23
2022-08-07T02:28:00.257Z,1004.24
2022-08-07T02:29:00.262Z,1004.23
2022-08-07T02:30:00.242Z,1004.21
2022-08-07T02:31:00.231Z,1004.25
2022-08-07T02:32:01.350Z,1004.22
2022-08-07T02:33:09.076Z,1004.19
2022-08-07T02:34:03.170Z,1004.15
2022-08-07T02:35:00.807Z,1004.14
2022-08-07T02:36:30.302Z,1004.23
2022-08-07T02:37:01.205Z,1004.10
2022-08-07T02:38:00.178Z,1004.09
2022-08-07T02:39:00.282Z,1004.15
2022-08-07T02:40:11.698Z,1004.11
2022-08-07T02:41:01.221Z,1004.14
2022-08-07T02:42:00.181Z,1004.15
2022-08-07T02:43:00.147Z,1004.11
2022-08-07T02:44:00.133Z,1004.13
2022-08-07T02:45:00.124Z,1004.10
2022-08-07T02:46:02.104Z,1004.16
2022-08-07T02:47:00.974Z,1004.16
2022-08-07T02:48:01.611Z,1004.13
2022-08-07T02:49:00.099Z,1004.17
2022-08-07T02:50:00.490Z,1004.07
2022-08-07T02:51:01.077Z,1004.16
2022-08-07T02:52:00.114Z,1004.13
2022-08-07T02:53:03.220Z,1004.17
2022-08-07T02:54:00.068Z,1004.17
2022-08-07T02:55:00.051Z,1004.19
2022-08-07T02:56:02.353Z,1004.17
2022-08-07T02:57:01.058Z,1004.11
2022-08-07T02:58:00.030Z,1004.13
2022-08-07T02:59:00.016Z,1004.11
2022-08-07T03:00:01.247Z,1004.14
2022-08-07T03:01:00.075Z,1004.16
2022-08-07T03:02:02.239Z,1004.14
2022-08-07T03:02:59.990Z,1004.13
2022-08-07T03:04:03.182Z,1004.13
2022-08-07T03:05:05.219Z,1004.08
2022-08-07T03:06:00.981Z,1004.15
2022-08-07T03:07:07.378Z,1004.10
2022-08-07T03:08:05.325Z,1004.16
2022-08-07T03:09:00.942Z,1004.11
2022-08-07T03:09:59.935Z,1004.06
2022-08-07T03:10:59.929Z,1004.03
2022-08-07T03:12:02.580Z,1004.06
2022-08-07T03:12:59.916Z,1004.05
2022-08-07T03:14:01.742Z,1004.07
2022-08-07T03:15:02.377Z,1004.05
2022-08-07T03:16:00.892Z,1004.09
2022-08-07T03:16:59.913Z,1004.06
2022-08-07T03:17:59.879Z,1004.04
2022-08-07T03:18:59.867Z,1004.02
2022-08-07T03:19:59.862Z,1004.04
2022-08-07T03:20:59.849Z,1004.01
2022-08-07T03:21:59.872Z,1004.08
2022-08-07T03:22:59.838Z,1004.03
2022-08-07T03:24:19.790Z,1004.01
2022-08-07T03:25:00.830Z,1004.03
2022-08-07T03:26:00.010Z,1004.06
2022-08-07T03:26:59.822Z,1004.04
2022-08-07T03:28:09.624Z,1003.98
2022-08-07T03:29:00.794Z,1004.09
2022-08-07T03:29:59.779Z,1004.05
2022-08-07T03:30:59.769Z,1004.13
2022-08-07T03:31:59.790Z,1004.05
2022-08-07T03:32:59.750Z,1004.08
2022-08-07T03:33:59.747Z,1004.09
2022-08-07T03:35:01.001Z,1004.04
2022-08-07T03:36:00.731Z,1004.07
2022-08-07T03:36:59.764Z,1004.10
2022-08-07T03:38:00.729Z,1004.07
2022-08-07T03:39:05.526Z,1004.01
2022-08-07T03:40:15.626Z,1004.04
2022-08-07T03:41:00.787Z,1004.04
2022-08-07T03:42:00.654Z,1004.06
2022-08-07T03:42:59.683Z,1004.01
2022-08-07T03:43:59.680Z,1004.03
2022-08-07T03:44:59.673Z,1004.04
2022-08-07T03:45:59.662Z,1004.05
2022-08-07T03:47:11.429Z,1003.98
2022-08-07T03:48:00.642Z,1004.02
2022-08-07T03:49:02.743Z,1004.05
2022-08-07T03:49:59.669Z,1004.03
2022-08-07T03:50:59.617Z,1004.04
2022-08-07T03:52:01.135Z,1004.07
2022-08-07T03:52:59.611Z,1004.04
2022-08-07T03:54:32.940Z,1003.94
2022-08-07T03:55:07.170Z,1003.99
2022-08-07T03:56:03.993Z,1004.01
2022-08-07T03:57:03.598Z,1004.01
2022-08-07T03:58:35.151Z,1004.04
2022-08-07T03:59:08.202Z,1004.04
2022-08-07T04:00:01.637Z,1004.00
2022-08-07T04:01:00.669Z,1004.08
2022-08-07T04:01:59.634Z,1004.04
2022-08-07T04:02:59.632Z,1004.00
2022-08-07T04:03:59.521Z,1004.04
2022-08-07T04:05:00.531Z,1004.02
2022-08-07T04:05:59.916Z,1004.02
2022-08-07T04:07:00.122Z,1004.10
2022-08-07T04:07:59.488Z,1003.96
2022-08-07T04:08:59.481Z,1004.05
2022-08-07T04:09:59.473Z,1004.03
2022-08-07T04:12:23.849Z,1004.03
2022-08-07T04:12:27.947Z,1004.03
2022-08-07T04:13:00.452Z,1004.05
2022-08-07T04:14:10.775Z,1004.02
2022-08-07T04:15:00.551Z,1004.06
2022-08-07T04:15:59.434Z,1004.00
2022-08-07T04:16:59.423Z,1004.02
2022-08-07T04:18:57.735Z,1004.00
2022-08-07T04:19:01.553Z,1004.05
2022-08-07T04:20:00.391Z,1004.06
2022-08-07T04:21:00.402Z,1004.04
2022-08-07T04:22:08.621Z,1004.02
2022-08-07T04:23:01.806Z,1004.03
2022-08-07T04:24:06.075Z,1004.06
2022-08-07T04:25:01.452Z,1004.13
2022-08-07T04:25:59.368Z,1004.11
2022-08-07T04:26:59.350Z,1004.07
2022-08-07T04:28:00.846Z,1004.06
2022-08-07T04:28:59.335Z,1004.05
2022-08-07T04:30:01.963Z,1004.10
2022-08-07T04:30:59.362Z,1004.03
2022-08-07T04:32:03.192Z,1004.06
2022-08-07T04:33:00.348Z,1004.14
2022-08-07T04:33:59.299Z,1004.21
2022-08-07T04:34:59.306Z,1004.12
2022-08-07T04:35:59.282Z,1004.09
2022-08-07T04:36:59.285Z,1004.07
2022-08-07T04:38:06.957Z,1004.10
2022-08-07T04:39:00.330Z,1004.20
2022-08-07T04:40:00.134Z,1004.15
2022-08-07T04:40:59.246Z,1004.16
2022-08-07T04:41:59.233Z,1004.17
2022-08-07T04:43:02.056Z,1004.10
2022-08-07T04:44:12.106Z,1004.15
2022-08-07T04:45:03.217Z,1004.13
2022-08-07T04:46:01.523Z,1004.16
2022-08-07T04:47:04.515Z,1004.15
2022-08-07T04:48:05.577Z,1004.15
2022-08-07T04:49:01.590Z,1004.11
2022-08-07T04:50:04.592Z,1004.13
2022-08-07T04:51:00.165Z,1004.21
2022-08-07T04:51:59.159Z,1004.16
2022-08-07T04:52:59.181Z,1004.18
2022-08-07T04:54:05.895Z,1004.20
2022-08-07T04:55:00.133Z,1004.18
2022-08-07T04:58:09.998Z,1004.26
2022-08-07T04:58:14.297Z,1004.25
2022-08-07T04:58:15.788Z,1004.29
2022-08-07T05:00:11.510Z,1004.28
2022-08-07T05:01:00.142Z,1004.30
2022-08-07T05:01:59.087Z,1004.32
2022-08-07T05:02:59.102Z,1004.27
2022-08-07T05:04:06.760Z,1004.26
2022-08-07T05:05:00.074Z,1004.28
2022-08-07T05:05:59.051Z,1004.29
2022-08-07T05:06:59.191Z,1004.22
2022-08-07T05:07:59.062Z,1004.31
2022-08-07T05:09:01.895Z,1004.30
2022-08-07T05:09:59.028Z,1004.29
2022-08-07T05:11:02.541Z,1004.35
2022-08-07T05:12:02.411Z,1004.30
2022-08-07T05:14:45.553Z,1004.41
2022-08-07T05:14:52.899Z,1004.35
2022-08-07T05:15:04.229Z,1004.38
2022-08-07T05:15:59.981Z,1004.34
2022-08-07T05:16:58.975Z,1004.34
2022-08-07T05:18:00.543Z,1004.43
2022-08-07T05:18:58.951Z,1004.46
2022-08-07T05:19:58.946Z,1004.41
2022-08-07T05:20:58.942Z,1004.48
2022-08-07T05:22:01.409Z,1004.44
2022-08-07T05:22:58.951Z,1004.41
2022-08-07T05:23:58.913Z,1004.50
2022-08-07T05:24:59.744Z,1004.46
2022-08-07T05:26:15.553Z,1004.45
2022-08-07T05:26:59.887Z,1004.49
2022-08-07T05:28:03.523Z,1004.38
2022-08-07T05:28:59.878Z,1004.50
2022-08-07T05:29:58.913Z,1004.53
2022-08-07T05:30:58.861Z,1004.54
2022-08-07T05:31:58.853Z,1004.47
2022-08-07T05:32:58.868Z,1004.46
2022-08-07T05:34:04.264Z,1004.47
2022-08-07T05:34:59.839Z,1004.47
2022-08-07T05:35:58.828Z,1004.50
2022-08-07T05:36:58.823Z,1004.49
2022-08-07T05:38:09.634Z,1004.44
2022-08-07T05:40:07.111Z,1004.45
2022-08-07T05:40:14.104Z,1004.47
2022-08-07T05:41:00.849Z,1004.46
2022-08-07T05:42:00.490Z,1004.58
2022-08-07T05:42:58.799Z,1004.46
2022-08-07T05:44:12.191Z,1004.45
2022-08-07T05:45:14.455Z,1004.49
2022-08-07T05:45:59.749Z,1004.54
2022-08-07T05:47:00.329Z,1004.55
2022-08-07T05:48:01.242Z,1004.49
2022-08-07T05:48:59.503Z,1004.49
2022-08-07T05:49:58.717Z,1004.46
2022-08-07T05:50:58.706Z,1004.55
2022-08-07T05:51:58.698Z,1004.55
2022-08-07T05:52:58.719Z,1004.56
2022-08-07T05:54:13.523Z,1004.53
2022-08-07T05:55:02.960Z,1004.57
2022-08-07T05:56:03.162Z,1004.61
2022-08-07T05:56:58.803Z,1004.55
2022-08-07T05:57:58.686Z,1004.58
2022-08-07T05:58:58.642Z,1004.64
2022-08-07T05:59:58.637Z,1004.57
2022-08-07T06:00:58.642Z,1004.68
2022-08-07T06:01:59.709Z,1004.64
2022-08-07T06:02:58.610Z,1004.61
2022-08-07T06:04:01.298Z,1004.68
2022-08-07T06:04:58.601Z,1004.64
2022-08-07T06:05:58.626Z,1004.68
2022-08-07T06:07:03.823Z,1004.63
2022-08-07T06:08:13.138Z,1004.61
2022-08-07T06:08:59.571Z,1004.62
2022-08-07T06:10:04.767Z,1004.65
2022-08-07T06:10:59.549Z,1004.68
2022-08-07T06:11:59.547Z,1004.64
2022-08-07T06:12:58.538Z,1004.60
2022-08-07T06:14:13.139Z,1004.55
2022-08-07T06:15:05.286Z,1004.63
2022-08-07T06:15:59.518Z,1004.69
2022-08-07T06:16:58.507Z,1004.56
2022-08-07T06:17:58.503Z,1004.60
2022-08-07T06:18:58.532Z,1004.62
2022-08-07T06:20:04.171Z,1004.55
2022-08-07T06:22:14.587Z,1004.62
2022-08-07T06:22:16.585Z,1004.59
2022-08-07T06:23:02.463Z,1004.58
2022-08-07T06:24:37.456Z,1004.60
2022-08-07T06:25:01.550Z,1004.59
2022-08-07T06:25:58.440Z,1004.53
2022-08-07T06:26:58.427Z,1004.54
2022-08-07T06:28:02.848Z,1004.56
2022-08-07T06:29:01.343Z,1004.59
2022-08-07T06:29:58.435Z,1004.55
2022-08-07T06:30:58.629Z,1004.53
2022-08-07T06:31:58.396Z,1004.59
2022-08-07T06:32:58.386Z,1004.50
2022-08-07T06:33:58.406Z,1004.53
2022-08-07T06:34:58.371Z,1004.63
2022-08-07T06:36:12.061Z,1004.60
2022-08-07T06:36:59.357Z,1004.51
2022-08-07T06:37:58.377Z,1004.52
2022-08-07T06:40:15.632Z,1004.57
2022-08-07T06:40:16.591Z,1004.61
2022-08-07T06:40:59.391Z,1004.55
2022-08-07T06:42:02.440Z,1004.51
2022-08-07T06:42:58.307Z,1004.54
2022-08-07T06:44:01.471Z,1004.48
2022-08-07T06:44:59.300Z,1004.50
2022-08-07T06:46:01.017Z,1004.53
2022-08-07T06:47:12.057Z,1004.52
2022-08-07T06:47:59.796Z,1004.55
2022-08-07T06:48:58.290Z,1004.48
2022-08-07T06:49:58.969Z,1004.54
2022-08-07T06:50:58.251Z,1004.51
2022-08-07T06:52:02.865Z,1004.50
2022-08-07T06:53:00.261Z,1004.47
2022-08-07T06:55:27.397Z,1004.48
2022-08-07T06:55:33.047Z,1004.50
2022-08-07T06:56:01.505Z,1004.48
2022-08-07T06:56:58.205Z,1004.46
2022-08-07T06:57:59.327Z,1004.45
2022-08-07T07:00:14.595Z,1004.37
2022-08-07T07:00:15.072Z,1004.46
2022-08-07T07:00:59.179Z,1004.40
2022-08-07T07:01:58.392Z,1004.36
2022-08-07T07:03:01.353Z,1004.32
2022-08-07T07:04:27.648Z,1004.32
2022-08-07T07:04:59.134Z,1004.30
2022-08-07T07:06:02.960Z,1004.31
2022-08-07T07:07:01.125Z,1004.32
2022-08-07T07:07:59.859Z,1004.28
2022-08-07T07:08:59.099Z,1004.28
2022-08-07T07:09:58.092Z,1004.29
2022-08-07T07:10:59.000Z,1004.28
2022-08-07T07:12:07.607Z,1004.28
2022-08-07T07:12:59.099Z,1004.19
2022-08-07T07:14:01.411Z,1004.23
2022-08-07T07:14:58.050Z,1004.30
2022-08-07T07:15:58.041Z,1004.23
2022-08-07T07:16:58.036Z,1004.33
2022-08-07T07:17:58.162Z,1004.28
2022-08-07T07:18:58.017Z,1004.30
2022-08-07T07:19:59.152Z,1004.22
2022-08-07T07:20:59.009Z,1004.21
2022-08-07T07:22:04.633Z,1004.22
2022-08-07T07:24:10.106Z,1004.24
2022-08-07T07:24:10.106Z,1004.14
2022-08-07T07:25:13.912Z,1004.16
2022-08-07T07:26:34.280Z,1004.15
2022-08-07T07:26:58.955Z,1004.22
2022-08-07T07:28:02.145Z,1004.19
2022-08-07T07:29:56.216Z,1004.19
2022-08-07T07:30:09.749Z,1004.20
2022-08-07T07:30:58.944Z,1004.18
2022-08-07T07:31:57.937Z,1004.25
2022-08-07T07:32:57.917Z,1004.25
2022-08-07T07:33:57.937Z,1004.20
2022-08-07T07:34:57.898Z,1004.19
2022-08-07T07:36:05.206Z,1004.21
2022-08-07T07:36:58.887Z,1004.19
2022-08-07T07:38:02.415Z,1004.18
2022-08-07T07:38:58.932Z,1004.13
2022-08-07T07:39:57.918Z,1004.17
2022-08-07T07:41:01.943Z,1004.09
2022-08-07T07:42:09.064Z,1004.20
2022-08-07T07:43:11.747Z,1004.23
2022-08-07T07:44:17.122Z,1004.19
2022-08-07T07:44:58.830Z,1004.20
2022-08-07T07:46:36.790Z,1004.12
2022-08-07T07:47:11.985Z,1004.14
2022-08-07T07:47:59.798Z,1004.15
2022-08-07T07:48:59.874Z,1004.09
2022-08-07T07:50:32.477Z,1004.14
2022-08-07T07:50:58.781Z,1004.12
2022-08-07T07:51:59.623Z,1004.10
2022-08-07T07:52:57.776Z,1004.17
2022-08-07T07:53:57.782Z,1004.06
2022-08-07T07:54:57.760Z,1004.09
2022-08-07T07:56:01.039Z,1004.08
2022-08-07T07:56:57.730Z,1004.01
2022-08-07T07:57:58.290Z,1004.05
2022-08-07T07:58:57.744Z,1004.05
2022-08-07T07:59:57.708Z,1004.02
2022-08-07T08:00:57.713Z,1004.02
2022-08-07T08:02:03.812Z,1003.97
2022-08-07T08:03:05.187Z,1004.05
2022-08-07T08:04:06.395Z,1003.97
2022-08-07T08:04:59.114Z,1003.99
2022-08-07T08:05:57.659Z,1003.85
2022-08-07T08:07:02.723Z,1003.90
2022-08-07T08:08:00.881Z,1003.89
2022-08-07T08:08:57.680Z,1003.87
2022-08-07T08:10:04.826Z,1003.87
2022-08-07T08:10:58.618Z,1003.81
2022-08-07T08:12:02.639Z,1003.86
2022-08-07T08:12:59.859Z,1003.83
2022-08-07T08:13:57.628Z,1003.83
2022-08-07T08:14:57.588Z,1003.77
2022-08-07T08:16:00.725Z,1003.81
2022-08-07T08:17:58.835Z,1003.79
2022-08-07T08:18:36.432Z,1003.81
2022-08-07T08:20:17.082Z,1003.80
2022-08-07T08:20:18.007Z,1003.84
2022-08-07T08:20:58.550Z,1003.86
2022-08-07T08:22:03.049Z,1003.81
2022-08-07T08:22:58.538Z,1003.73
2022-08-07T08:23:57.560Z,1003.70
2022-08-07T08:25:18.256Z,1003.81
2022-08-07T08:26:04.602Z,1003.83
2022-08-07T08:26:58.525Z,1003.74
2022-08-07T08:28:01.975Z,1003.85
2022-08-07T08:28:58.506Z,1003.82
2022-08-07T08:29:57.475Z,1003.80
2022-08-07T08:30:57.491Z,1003.79
2022-08-07T08:31:58.944Z,1003.83
2022-08-07T08:32:58.463Z,1003.76
2022-08-07T08:33:57.904Z,1003.80
2022-08-07T08:34:57.442Z,1003.80
2022-08-07T08:35:57.431Z,1003.84
2022-08-07T08:36:58.065Z,1003.79
2022-08-07T08:38:01.362Z,1003.66
2022-08-07T08:38:59.087Z,1003.64
2022-08-07T08:39:58.686Z,1003.63
2022-08-07T08:40:57.402Z,1003.64
2022-08-07T08:41:59.355Z,1003.64
2022-08-07T08:42:57.377Z,1003.69
2022-08-07T08:43:59.349Z,1003.66
2022-08-07T08:44:57.386Z,1003.63
2022-08-07T08:46:00.690Z,1003.61
2022-08-07T08:46:57.362Z,1003.69
2022-08-07T08:47:57.387Z,1003.66
2022-08-07T08:48:57.360Z,1003.69
2022-08-07T08:50:05.178Z,1003.64
2022-08-07T08:50:58.327Z,1003.71
2022-08-07T08:52:13.240Z,1003.55
2022-08-07T08:52:58.302Z,1003.61
2022-08-07T08:53:57.317Z,1003.64
2022-08-07T08:54:57.295Z,1003.59
2022-08-07T08:55:59.013Z,1003.58
2022-08-07T08:56:57.271Z,1003.59
2022-08-07T08:57:57.272Z,1003.54
2022-08-07T08:58:57.283Z,1003.53
2022-08-07T08:59:57.428Z,1003.57
2022-08-07T09:00:57.264Z,1003.50
2022-08-07T09:01:59.564Z,1003.49
2022-08-07T09:02:57.563Z,1003.51
2022-08-07T09:03:57.248Z,1003.39
2022-08-07T09:04:57.213Z,1003.48
2022-08-07T09:05:57.205Z,1003.41
2022-08-07T09:06:57.214Z,1003.47
2022-08-07T09:07:57.648Z,1003.51
2022-08-07T09:08:57.220Z,1003.48
2022-08-07T09:09:57.454Z,1003.47
2022-08-07T09:10:57.165Z,1003.52
2022-08-07T09:12:08.907Z,1003.47
2022-08-07T09:12:59.143Z,1003.55
2022-08-07T09:13:57.167Z,1003.38
2022-08-07T09:14:58.873Z,1003.42
2022-08-07T09:16:23.408Z,1003.47
2022-08-07T09:16:58.119Z,1003.42
2022-08-07T09:17:59.656Z,1003.44
2022-08-07T09:18:58.621Z,1003.42
2022-08-07T09:19:57.092Z,1003.50
2022-08-07T09:20:57.843Z,1003.47
2022-08-07T09:22:23.102Z,1003.40
2022-08-07T09:24:30.792Z,1003.41
2022-08-07T09:24:33.073Z,1003.37
2022-08-07T09:24:59.305Z,1003.42
2022-08-07T09:25:57.049Z,1003.31
2022-08-07T09:26:57.220Z,1003.35
2022-08-07T09:28:01.262Z,1003.34
2022-08-07T09:30:00.584Z,1003.41
2022-08-07T09:30:06.432Z,1003.30
2022-08-07T09:30:58.011Z,1003.37
2022-08-07T09:31:57.008Z,1003.32
2022-08-07T09:32:57.002Z,1003.27
2022-08-07T09:33:58.202Z,1003.31
2022-08-07T09:34:57.017Z,1003.31
2022-08-07T09:36:04.124Z,1003.29
2022-08-07T09:36:57.973Z,1003.18
2022-08-07T09:37:56.991Z,1003.29
2022-08-07T09:38:56.955Z,1003.19
2022-08-07T09:39:57.839Z,1003.21
2022-08-07T09:40:56.935Z,1003.29
2022-08-07T09:41:59.045Z,1003.13
2022-08-07T09:42:57.916Z,1003.13
2022-08-07T09:44:05.871Z,1003.13
2022-08-07T09:47:23.902Z,1003.06
2022-08-07T09:47:50.043Z,1003.14
2022-08-07T09:47:51.180Z,1003.10
2022-08-07T09:48:02.812Z,1003.10
2022-08-07T09:50:01.083Z,1003.11
2022-08-07T09:50:04.153Z,1003.10
2022-08-07T09:50:59.481Z,1003.06
2022-08-07T09:52:10.428Z,1003.03
2022-08-07T09:52:57.848Z,1003.05
2022-08-07T09:54:00.614Z,1003.07
2022-08-07T09:54:58.883Z,1003.07
2022-08-07T09:56:03.106Z,1003.09
2022-08-07T09:56:57.818Z,1003.00
2022-08-07T09:57:56.830Z,1002.98
2022-08-07T09:58:56.799Z,1003.06
2022-08-07T10:00:01.464Z,1002.91
2022-08-07T10:00:58.787Z,1003.00
2022-08-07T10:01:56.777Z,1002.96
2022-08-07T10:02:56.776Z,1002.92
2022-08-07T10:04:06.292Z,1002.95
2022-08-07T10:04:57.835Z,1002.84
2022-08-07T10:05:59.133Z,1002.89
2022-08-07T10:06:57.750Z,1002.84
2022-08-07T10:07:57.146Z,1002.90
2022-08-07T10:08:56.732Z,1002.82
2022-08-07T10:10:00.972Z,1002.81
2022-08-07T10:11:17.003Z,1002.78
2022-08-07T10:12:01.723Z,1002.74
2022-08-07T10:12:56.741Z,1002.77
2022-08-07T10:14:01.668Z,1002.78
2022-08-07T10:14:57.715Z,1002.70
2022-08-07T10:15:56.682Z,1002.65
2022-08-07T10:16:59.541Z,1002.70
2022-08-07T10:18:02.883Z,1002.74
2022-08-07T10:18:57.670Z,1002.72
2022-08-07T10:19:56.675Z,1002.70
2022-08-07T10:20:56.637Z,1002.69
2022-08-07T10:22:15.965Z,1002.63
2022-08-07T10:22:57.634Z,1002.64
2022-08-07T10:24:05.477Z,1002.64
2022-08-07T10:24:57.632Z,1002.60
2022-08-07T10:25:56.614Z,1002.56
2022-08-07T10:26:56.664Z,1002.56
2022-08-07T10:27:56.586Z,1002.56
2022-08-07T10:28:56.611Z,1002.57
2022-08-07T10:29:56.611Z,1002.54
2022-08-07T10:30:56.575Z,1002.58
2022-08-07T10:31:56.565Z,1002.58
2022-08-07T10:32:59.994Z,1002.60
2022-08-07T10:34:06.968Z,1002.56
2022-08-07T10:34:57.581Z,1002.58
2022-08-07T10:36:10.820Z,1002.59
2022-08-07T10:36:58.534Z,1002.54
2022-08-07T10:38:20.983Z,1002.51
2022-08-07T10:38:57.510Z,1002.50
2022-08-07T10:39:57.568Z,1002.40
2022-08-07T10:40:57.493Z,1002.53
2022-08-07T10:42:09.207Z,1002.53
2022-08-07T10:42:57.491Z,1002.48
2022-08-07T10:44:07.265Z,1002.38
2022-08-07T10:44:57.488Z,1002.46
2022-08-07T10:45:57.643Z,1002.47
2022-08-07T10:46:56.458Z,1002.47
2022-08-07T10:48:03.056Z,1002.42
2022-08-07T10:48:58.448Z,1002.44
2022-08-07T10:49:56.463Z,1002.42
2022-08-07T10:50:56.427Z,1002.41
2022-08-07T10:52:02.292Z,1002.38
2022-08-07T10:52:57.413Z,1002.37
2022-08-07T10:54:00.096Z,1002.34
2022-08-07T10:55:01.839Z,1002.30
2022-08-07T10:55:57.379Z,1002.21
2022-08-07T10:56:56.373Z,1002.25
2022-08-07T10:57:56.573Z,1002.29
2022-08-07T10:58:59.326Z,1002.29
2022-08-07T10:59:56.357Z,1002.32
2022-08-07T11:00:56.707Z,1002.29
2022-08-07T11:02:04.786Z,1002.20
2022-08-07T11:02:57.366Z,1002.25
2022-08-07T11:04:16.581Z,1002.25
2022-08-07T11:05:10.650Z,1002.22
2022-08-07T11:06:00.159Z,1002.19
2022-08-07T11:07:03.508Z,1002.18
2022-08-07T11:08:00.715Z,1002.24
2022-08-07T11:08:57.278Z,1002.19
2022-08-07T11:10:07.924Z,1002.21
2022-08-07T11:11:00.073Z,1002.20
2022-08-07T11:11:59.271Z,1002.23
2022-08-07T11:13:02.216Z,1002.18
2022-08-07T11:14:46.081Z,1002.12
2022-08-07T11:15:00.583Z,1002.13
2022-08-07T11:15:56.257Z,1002.17
2022-08-07T11:17:01.112Z,1002.14
2022-08-07T11:18:03.605Z,1002.10
2022-08-07T11:18:57.220Z,1002.05
2022-08-07T11:19:56.198Z,1002.08
2022-08-07T11:20:56.229Z,1002.08
2022-08-07T11:21:56.186Z,1002.12
2022-08-07T11:22:56.192Z,1002.04
2022-08-07T11:23:56.188Z,1002.08
2022-08-07T11:24:56.177Z,1002.06
2022-08-07T11:25:56.185Z,1002.00
2022-08-07T11:26:57.148Z,1002.00
2022-08-07T11:28:02.585Z,1002.06
2022-08-07T11:28:57.141Z,1001.98
2022-08-07T11:30:17.544Z,1001.91
2022-08-07T11:30:57.146Z,1001.97
2022-08-07T11:31:56.107Z,1001.91
2022-08-07T11:32:56.102Z,1001.92
2022-08-07T11:34:00.082Z,1001.92
2022-08-07T11:34:56.081Z,1001.86
2022-08-07T11:35:59.793Z,1001.91
2022-08-07T11:36:56.364Z,1001.98
2022-08-07T11:38:09.948Z,1001.86
2022-08-07T11:38:57.062Z,1001.91
2022-08-07T11:39:59.843Z,1001.90
2022-08-07T11:40:57.037Z,1001.87
2022-08-07T11:42:01.646Z,1001.84
2022-08-07T11:42:57.018Z,1001.88
2022-08-07T11:44:11.811Z,1001.82
2022-08-07T11:44:58.005Z,1001.84
2022-08-07T11:45:56.016Z,1001.85
2022-08-07T11:46:55.990Z,1001.77
2022-08-07T11:47:59.440Z,1001.78
2022-08-07T11:49:51.420Z,1001.79
2022-08-07T11:50:30.711Z,1001.81
2022-08-07T11:50:57.688Z,1001.71
2022-08-07T11:51:55.949Z,1001.68
2022-08-07T11:52:55.935Z,1001.77
2022-08-07T11:54:01.643Z,1001.70
2022-08-07T11:54:56.957Z,1001.69
2022-08-07T11:56:26.074Z,1001.72
2022-08-07T11:56:56.904Z,1001.64
2022-08-07T11:57:59.818Z,1001.60
2022-08-07T11:58:56.896Z,1001.63
2022-08-07T12:00:12.466Z,1001.67
2022-08-07T12:01:02.584Z,1001.66
2022-08-07T12:02:01.006Z,1001.75
2022-08-07T12:02:55.943Z,1001.73
2022-08-07T12:03:55.881Z,1001.74
2022-08-07T12:04:55.904Z,1001.59
2022-08-07T12:05:58.395Z,1001.68